Terminal Aerodrome Forecast
Issued by NWS Shreveport, LA

Home | Current Version | Previous Version | Text Only | Print | Product List | Glossary On
Versions: 1 2 3 4 5 6 7 8 9 10 11 12 13 14 15 16 17 18 19
000
FTUS44 KSHV 251720
TAFMLU
TAF
KMLU 251720Z 2518/2618 VRB05KT P6SM VCTS SCT040CB
     FM252000 08006KT P6SM VCTS SCT045CB SCT250
      TEMPO 2520/2524 VRB15G25KT 3SM TSRA OVC045CB
     FM260000 VRB03KT P6SM FEW050 SCT250
     FM260600 00000KT P6SM SCT250
     FM261200 09005KT P6SM SCT250=

USA.gov is the U.S. government's official web portal to all federal, state and local government web resources and services.